createdAt,value
2022-10-06T00:02:27.925Z,93087.69
2022-10-06T00:05:17.496Z,93096.94
2022-10-06T00:08:05.161Z,93092.81
2022-10-06T00:10:54.717Z,93100.75
2022-10-06T00:13:42.384Z,93094.25
2022-10-06T00:16:31.901Z,93092.66
2022-10-06T00:19:19.481Z,93092.09
2022-10-06T00:22:07.080Z,93088.53
2022-10-06T00:24:54.650Z,93098.22
2022-10-06T00:27:42.188Z,93095.53
2022-10-06T00:30:29.763Z,93098.03
2022-10-06T00:33:17.323Z,93098.50
2022-10-06T00:36:04.902Z,93100.59
2022-10-06T00:38:52.454Z,93101.44
2022-10-06T00:41:40.042Z,93107.69
2022-10-06T00:44:27.600Z,93107.28
2022-10-06T00:47:15.181Z,93098.63
2022-10-06T00:50:02.730Z,93104.19
2022-10-06T00:52:50.296Z,93097.13
2022-10-06T00:55:37.850Z,93103.81
2022-10-06T00:58:25.783Z,93108.22
2022-10-06T01:01:13.686Z,93110.13
2022-10-06T01:04:01.291Z,93115.16
2022-10-06T01:06:48.807Z,93123.75
2022-10-06T01:09:36.359Z,93125.63
2022-10-06T01:12:23.898Z,93120.09
2022-10-06T01:15:11.454Z,93119.78
2022-10-06T01:17:58.991Z,93122.94
2022-10-06T01:20:46.562Z,93128.88
2022-10-06T01:23:34.108Z,93134.25
2022-10-06T01:26:21.663Z,93124.19
2022-10-06T01:29:09.211Z,93133.13
2022-10-06T01:31:56.769Z,93126.38
2022-10-06T01:34:44.317Z,93124.84
2022-10-06T01:37:31.890Z,93133.59
2022-10-06T01:40:19.454Z,93123.50
2022-10-06T01:43:07.072Z,93127.63
2022-10-06T01:45:54.618Z,93124.50
2022-10-06T01:48:42.173Z,93118.88
2022-10-06T01:51:29.745Z,93124.84
2022-10-06T01:54:17.309Z,93128.97
2022-10-06T01:57:04.844Z,93131.44
2022-10-06T01:59:54.784Z,93124.06
2022-10-06T02:02:42.613Z,93134.56
2022-10-06T02:05:30.171Z,93127.38
2022-10-06T02:08:17.704Z,93125.25
2022-10-06T02:11:05.315Z,93118.41
2022-10-06T02:13:52.874Z,93124.59
2022-10-06T02:16:40.431Z,93127.78
2022-10-06T02:19:27.980Z,93123.53
2022-10-06T02:22:15.513Z,93119.03
2022-10-06T02:25:03.077Z,93124.56
2022-10-06T02:27:50.627Z,93117.22
2022-10-06T02:30:38.271Z,93123.78
2022-10-06T02:33:25.806Z,93128.31
2022-10-06T02:36:13.369Z,93129.50
2022-10-06T02:39:00.940Z,93137.34
2022-10-06T02:41:48.491Z,93138.28
2022-10-06T02:44:36.060Z,93144.25
2022-10-06T02:47:23.589Z,93134.16
2022-10-06T02:50:11.159Z,93129.84
2022-10-06T02:52:58.709Z,93133.72
2022-10-06T02:55:46.270Z,93132.38
2022-10-06T02:58:33.825Z,93123.81
2022-10-06T03:01:21.452Z,93121.03
2022-10-06T03:04:09.057Z,93116.50
2022-10-06T03:06:56.621Z,93125.41
2022-10-06T03:09:44.172Z,93128.84
2022-10-06T03:12:31.731Z,93129.28
2022-10-06T03:15:19.281Z,93131.53
2022-10-06T03:18:06.932Z,93128.97
2022-10-06T03:20:54.466Z,93134.75
2022-10-06T03:23:42.031Z,93135.72
2022-10-06T03:26:29.580Z,93134.38
2022-10-06T03:29:17.142Z,93139.41
2022-10-06T03:32:04.708Z,93150.69
2022-10-06T03:34:52.275Z,93146.41
2022-10-06T03:37:39.958Z,93149.72
2022-10-06T03:40:27.497Z,93153.34
2022-10-06T03:43:15.064Z,93157.84
2022-10-06T03:46:02.601Z,93163.09
2022-10-06T03:48:50.155Z,93164.13
2022-10-06T03:51:37.691Z,93165.75
2022-10-06T03:54:25.258Z,93169.25
2022-10-06T03:57:12.817Z,93165.56
2022-10-06T04:00:00.389Z,93171.53
2022-10-06T04:02:47.946Z,93174.78
2022-10-06T04:05:35.505Z,93174.03
2022-10-06T04:08:23.049Z,93172.94
2022-10-06T04:11:10.619Z,93171.91
2022-10-06T04:13:58.164Z,93176.13
2022-10-06T04:16:45.883Z,93170.88
2022-10-06T04:19:33.483Z,93175.81
2022-10-06T04:22:21.050Z,93175.88
2022-10-06T04:25:08.596Z,93170.72
2022-10-06T04:27:56.152Z,93166.88
2022-10-06T04:30:43.706Z,93171.56
2022-10-06T04:33:31.272Z,93179.09
2022-10-06T04:36:18.821Z,93177.25
2022-10-06T04:39:06.475Z,93188.09
2022-10-06T04:41:56.019Z,93189.97
2022-10-06T04:44:43.577Z,93190.69
2022-10-06T04:47:31.105Z,93200.59
2022-10-06T04:50:18.661Z,93199.63
2022-10-06T04:53:06.256Z,93198.28
2022-10-06T04:55:53.807Z,93207.38
2022-10-06T04:58:41.358Z,93196.38
2022-10-06T05:01:28.964Z,93195.09
2022-10-06T05:04:16.617Z,93202.13
2022-10-06T05:07:04.151Z,93203.28
2022-10-06T05:09:51.704Z,93203.69
2022-10-06T05:12:39.246Z,93201.81
2022-10-06T05:15:26.817Z,93196.56
2022-10-06T05:18:14.359Z,93206.06
2022-10-06T05:21:06.350Z,93202.72
2022-10-06T05:23:54.216Z,93200.84
2022-10-06T05:26:41.769Z,93209.63
2022-10-06T05:29:29.323Z,93213.09
2022-10-06T05:32:16.890Z,93203.56
2022-10-06T05:35:04.424Z,93209.28
2022-10-06T05:37:52.157Z,93201.66
2022-10-06T05:40:39.701Z,93200.53
2022-10-06T05:43:27.265Z,93204.69
2022-10-06T05:46:14.841Z,93201.31
2022-10-06T05:49:04.434Z,93206.22
2022-10-06T05:51:51.971Z,93197.09
2022-10-06T05:54:39.524Z,93198.22
2022-10-06T05:57:27.068Z,93206.22
2022-10-06T06:00:14.611Z,93193.66
2022-10-06T06:03:02.182Z,93193.28
2022-10-06T06:05:49.859Z,93200.13
2022-10-06T06:08:39.380Z,93198.22
2022-10-06T06:11:27.191Z,93199.72
2022-10-06T06:14:14.815Z,93210.03
2022-10-06T06:17:02.475Z,93211.53
2022-10-06T06:19:50.105Z,93207.75
2022-10-06T06:22:37.664Z,93199.38
2022-10-06T06:25:25.233Z,93210.03
2022-10-06T06:28:12.814Z,93216.13
2022-10-06T06:31:00.458Z,93213.47
2022-10-06T06:33:48.051Z,93213.50
2022-10-06T06:36:35.878Z,93215.75
2022-10-06T06:39:25.539Z,93222.56
2022-10-06T06:42:13.092Z,93222.16
2022-10-06T06:45:00.682Z,93232.06
2022-10-06T06:47:48.232Z,93232.38
2022-10-06T06:50:35.792Z,93228.16
2022-10-06T06:53:23.342Z,93231.22
2022-10-06T06:56:10.921Z,93239.19
2022-10-06T06:58:58.473Z,93242.22
2022-10-06T07:01:46.187Z,93241.41
2022-10-06T07:04:33.839Z,93238.00
2022-10-06T07:07:21.409Z,93237.47
2022-10-06T07:10:08.942Z,93236.22
2022-10-06T07:12:56.505Z,93238.41
2022-10-06T07:15:46.094Z,93239.06
2022-10-06T07:18:33.685Z,93245.84
2022-10-06T07:21:21.265Z,93242.34
2022-10-06T07:24:10.816Z,93244.72
2022-10-06T07:26:58.393Z,93244.25
2022-10-06T07:29:45.958Z,93247.34
2022-10-06T07:32:33.521Z,93251.53
2022-10-06T07:35:21.103Z,93250.66
2022-10-06T07:38:08.662Z,93251.75
2022-10-06T07:41:14.891Z,93243.22
2022-10-06T07:44:07.870Z,93248.09
2022-10-06T07:46:55.884Z,93247.72
2022-10-06T07:49:43.436Z,93247.75
2022-10-06T07:52:31.007Z,93247.00
2022-10-06T07:55:18.557Z,93246.53
2022-10-06T07:58:06.116Z,93261.59
2022-10-06T08:00:53.690Z,93266.25
2022-10-06T08:03:41.373Z,93261.19
2022-10-06T08:06:28.927Z,93258.84
2022-10-06T08:09:16.509Z,93269.41
2022-10-06T08:12:04.060Z,93264.41
2022-10-06T08:14:51.973Z,93260.97
2022-10-06T08:17:39.782Z,93264.47
2022-10-06T08:20:27.339Z,93272.47
2022-10-06T08:23:14.898Z,93267.91
2022-10-06T08:26:02.457Z,93267.41
2022-10-06T08:28:50.035Z,93268.00
2022-10-06T08:31:37.623Z,93268.06
2022-10-06T08:34:25.196Z,93276.72
2022-10-06T08:37:20.233Z,93269.78
2022-10-06T08:40:08.093Z,93279.00
2022-10-06T08:42:55.636Z,93270.91
2022-10-06T08:45:43.312Z,93277.03
2022-10-06T08:48:30.905Z,93280.28
2022-10-06T08:51:18.474Z,93270.97
2022-10-06T08:54:06.040Z,93276.66
2022-10-06T08:56:53.612Z,93278.34
2022-10-06T08:59:41.170Z,93272.94
2022-10-06T09:02:28.814Z,93275.25
2022-10-06T09:05:16.434Z,93273.81
2022-10-06T09:08:03.993Z,93277.25
2022-10-06T09:10:51.537Z,93280.53
2022-10-06T09:13:39.092Z,93273.25
2022-10-06T09:16:26.685Z,93268.63
2022-10-06T09:19:14.281Z,93271.44
2022-10-06T09:22:01.838Z,93269.25
2022-10-06T09:24:49.405Z,93268.19
2022-10-06T09:27:36.948Z,93262.28
2022-10-06T09:30:24.527Z,93263.31
2022-10-06T09:33:12.089Z,93269.69
2022-10-06T09:35:59.765Z,93267.75
2022-10-06T09:38:47.315Z,93269.72
2022-10-06T09:41:34.915Z,93265.84
2022-10-06T09:44:22.607Z,93260.03
2022-10-06T09:47:10.195Z,93264.69
2022-10-06T09:49:59.738Z,93257.94
2022-10-06T09:52:47.327Z,93261.78
2022-10-06T09:55:34.847Z,93255.34
2022-10-06T09:58:22.407Z,93259.09
2022-10-06T10:01:09.975Z,93258.34
2022-10-06T10:04:15.945Z,93250.75
2022-10-06T10:07:05.072Z,93262.25
2022-10-06T10:09:53.897Z,93259.75
2022-10-06T10:12:41.695Z,93254.69
2022-10-06T10:15:29.249Z,93245.78
2022-10-06T10:18:16.842Z,93245.75
2022-10-06T10:21:04.398Z,93247.97
2022-10-06T10:23:51.974Z,93241.19
2022-10-06T10:26:39.524Z,93240.88
2022-10-06T10:29:30.521Z,93237.41
2022-10-06T10:32:20.023Z,93242.00
2022-10-06T10:35:07.580Z,93242.22
2022-10-06T10:37:55.146Z,93242.69
2022-10-06T10:40:42.803Z,93240.09
2022-10-06T10:43:30.353Z,93242.00
2022-10-06T10:46:17.982Z,93244.63
2022-10-06T10:49:05.557Z,93246.84
2022-10-06T10:51:53.114Z,93240.59
2022-10-06T10:54:40.673Z,93234.00
2022-10-06T10:57:28.215Z,93245.00
2022-10-06T11:00:15.781Z,93245.38
2022-10-06T11:03:03.325Z,93237.06
2022-10-06T11:05:50.902Z,93238.59
2022-10-06T11:08:38.464Z,93240.13
2022-10-06T11:11:26.037Z,93236.66
2022-10-06T11:14:13.584Z,93238.59
2022-10-06T11:17:01.152Z,93238.56
2022-10-06T11:19:48.700Z,93235.88
2022-10-06T11:22:36.282Z,93232.50
2022-10-06T11:25:23.852Z,93233.28
2022-10-06T11:28:11.447Z,93231.34
2022-10-06T11:30:59.028Z,93239.66
2022-10-06T11:33:46.600Z,93227.19
2022-10-06T11:36:34.140Z,93229.84
2022-10-06T11:39:21.708Z,93225.63
2022-10-06T11:42:09.271Z,93237.09
2022-10-06T11:44:57.100Z,93229.03
2022-10-06T11:47:44.869Z,93223.75
2022-10-06T11:50:32.430Z,93225.28
2022-10-06T11:53:19.986Z,93218.72
2022-10-06T11:56:07.633Z,93222.50
2022-10-06T11:58:55.172Z,93215.75
2022-10-06T12:01:42.784Z,93220.31
2022-10-06T12:04:30.365Z,93219.94
2022-10-06T12:07:17.936Z,93224.09
2022-10-06T12:10:05.482Z,93213.41
2022-10-06T12:13:06.155Z,93211.16
2022-10-06T12:19:02.409Z,93209.81
2022-10-06T12:21:49.972Z,93207.34
2022-10-06T12:24:37.522Z,93201.66
2022-10-06T12:27:26.052Z,93199.25
2022-10-06T12:30:13.912Z,93190.97
2022-10-06T12:33:01.487Z,93197.06
2022-10-06T12:35:49.036Z,93189.84
2022-10-06T12:38:36.605Z,93194.03
2022-10-06T12:41:24.174Z,93198.22
2022-10-06T12:44:11.749Z,93182.50
2022-10-06T12:46:59.306Z,93183.59
2022-10-06T12:49:46.948Z,93179.91
2022-10-06T12:52:34.480Z,93182.91
2022-10-06T12:55:22.035Z,93179.19
2022-10-06T12:58:09.587Z,93176.50
2022-10-06T13:00:57.186Z,93168.50
2022-10-06T13:03:44.774Z,93167.38
2022-10-06T13:06:32.332Z,93165.47
2022-10-06T13:09:19.860Z,93165.06
2022-10-06T13:12:07.541Z,93163.56
2022-10-06T13:14:55.091Z,93151.41
2022-10-06T13:17:42.690Z,93157.03
2022-10-06T13:20:30.243Z,93160.84
2022-10-06T13:23:17.792Z,93159.69
2022-10-06T13:26:05.342Z,93154.75
2022-10-06T13:28:52.894Z,93142.88
2022-10-06T13:31:40.438Z,93142.59
2022-10-06T13:34:27.975Z,93150.59
2022-10-06T13:37:15.628Z,93150.09
2022-10-06T13:40:12.312Z,93147.81
2022-10-06T13:43:09.137Z,93150.41
2022-10-06T13:45:56.713Z,93145.03
2022-10-06T13:48:44.289Z,93145.13
2022-10-06T13:51:31.874Z,93146.28
2022-10-06T13:54:19.400Z,93142.53
2022-10-06T13:57:07.080Z,93140.22
2022-10-06T13:59:54.639Z,93140.22
2022-10-06T14:02:42.405Z,93144.06
2022-10-06T14:05:29.996Z,93144.16
2022-10-06T14:08:17.554Z,93145.94
2022-10-06T14:11:05.130Z,93144.00
2022-10-06T14:13:52.722Z,93153.63
2022-10-06T14:16:40.267Z,93147.09
2022-10-06T14:19:27.844Z,93142.53
2022-10-06T14:22:15.396Z,93143.75
2022-10-06T14:25:04.946Z,93146.41
2022-10-06T14:27:52.496Z,93145.69
2022-10-06T14:30:40.100Z,93152.53
2022-10-06T14:33:27.700Z,93154.44
2022-10-06T14:36:15.232Z,93149.09
2022-10-06T14:39:02.794Z,93147.59
2022-10-06T14:41:50.328Z,93147.59
2022-10-06T14:44:37.885Z,93147.97
2022-10-06T14:47:25.449Z,93146.47
2022-10-06T14:50:12.999Z,93139.97
2022-10-06T14:53:00.535Z,93138.47
2022-10-06T14:55:48.093Z,93136.94
2022-10-06T14:58:35.650Z,93130.47
2022-10-06T15:01:23.214Z,93126.66
2022-10-06T15:04:10.777Z,93122.06
2022-10-06T15:06:58.348Z,93129.31
2022-10-06T15:09:45.894Z,93129.69
2022-10-06T15:12:34.183Z,93130.44
2022-10-06T15:15:21.779Z,93128.56
2022-10-06T15:18:09.331Z,93128.91
2022-10-06T15:20:56.873Z,93117.50
2022-10-06T15:23:44.527Z,93123.22
2022-10-06T15:26:32.087Z,93117.50
2022-10-06T15:29:19.633Z,93119.03
2022-10-06T15:32:07.284Z,93115.94
2022-10-06T15:34:54.910Z,93120.16
2022-10-06T15:37:42.482Z,93117.41
2022-10-06T15:40:30.023Z,93107.91
2022-10-06T15:43:17.601Z,93115.50
2022-10-06T15:46:05.239Z,93104.88
2022-10-06T15:48:52.919Z,93107.56
2022-10-06T15:51:42.451Z,93112.47
2022-10-06T15:54:30.030Z,93100.31
2022-10-06T15:57:20.889Z,93102.44
2022-10-06T16:00:08.934Z,93107.75
2022-10-06T16:02:56.519Z,93105.16
2022-10-06T16:05:44.156Z,93104.50
2022-10-06T16:08:31.690Z,93106.66
2022-10-06T16:11:19.296Z,93106.41
2022-10-06T16:14:06.834Z,93121.53
2022-10-06T16:16:54.392Z,93113.53
2022-10-06T16:19:41.919Z,93121.09
2022-10-06T16:22:29.484Z,93112.75
2022-10-06T16:25:17.027Z,93109.50
2022-10-06T16:28:04.758Z,93111.06
2022-10-06T16:30:52.553Z,93112.53
2022-10-06T16:33:40.117Z,93115.63
2022-10-06T16:36:27.671Z,93118.91
2022-10-06T16:39:15.229Z,93111.34
2022-10-06T16:42:02.777Z,93109.47
2022-10-06T16:44:50.354Z,93114.50
2022-10-06T16:47:37.950Z,93110.78
2022-10-06T16:50:25.518Z,93115.34
2022-10-06T16:53:16.841Z,93116.28
2022-10-06T16:56:04.586Z,93109.09
2022-10-06T16:58:52.128Z,93121.03
2022-10-06T17:01:39.724Z,93112.75
2022-10-06T17:04:27.332Z,93114.50
2022-10-06T17:07:14.941Z,93117.09
2022-10-06T17:10:19.562Z,93115.66
2022-10-06T17:13:07.919Z,93122.13
2022-10-06T17:15:55.520Z,93121.16
2022-10-06T17:18:43.089Z,93117.69
2022-10-06T17:21:45.541Z,93125.53
2022-10-06T17:24:34.074Z,93123.56
2022-10-06T17:27:21.650Z,93126.41
2022-10-06T17:30:09.219Z,93124.84
2022-10-06T17:32:56.743Z,93125.19
2022-10-06T17:35:44.311Z,93141.16
2022-10-06T17:38:31.862Z,93135.78
2022-10-06T17:41:19.579Z,93132.75
2022-10-06T17:44:09.104Z,93138.41
2022-10-06T17:46:56.688Z,93132.41
2022-10-06T17:49:44.271Z,93132.63
2022-10-06T17:52:31.822Z,93136.53
2022-10-06T17:55:19.383Z,93132.88
2022-10-06T17:58:06.967Z,93139.53
2022-10-06T18:00:54.593Z,93131.84
2022-10-06T18:03:42.160Z,93132.88
2022-10-06T18:06:29.725Z,93130.44
2022-10-06T18:09:17.280Z,93132.56
2022-10-06T18:12:04.846Z,93129.75
2022-10-06T18:14:52.417Z,93142.69
2022-10-06T18:17:39.971Z,93141.19
2022-10-06T18:20:27.530Z,93125.97
2022-10-06T18:23:15.074Z,93141.84
2022-10-06T18:26:02.680Z,93140.19
2022-10-06T18:28:50.231Z,93132.25
2022-10-06T18:31:37.828Z,93134.81
2022-10-06T18:37:32.922Z,93145.59
2022-10-06T18:40:20.474Z,93144.88
2022-10-06T18:43:08.080Z,93147.53
2022-10-06T18:45:55.672Z,93142.38
2022-10-06T18:48:43.299Z,93136.31
2022-10-06T18:51:30.932Z,93133.81
2022-10-06T18:54:18.790Z,93130.91
2022-10-06T18:57:06.370Z,93135.44
2022-10-06T18:59:53.944Z,93144.53
2022-10-06T19:02:44.926Z,93143.91
2022-10-06T19:05:35.747Z,93136.53
2022-10-06T19:08:23.350Z,93141.13
2022-10-06T19:11:11.140Z,93140.47
2022-10-06T19:13:58.708Z,93140.03
2022-10-06T19:16:46.383Z,93137.38
2022-10-06T19:19:34.187Z,93138.53
2022-10-06T19:22:23.783Z,93142.19
2022-10-06T19:25:11.462Z,93141.44
2022-10-06T19:27:59.172Z,93140.13
2022-10-06T19:30:46.863Z,93140.22
2022-10-06T19:33:34.463Z,93139.16
2022-10-06T19:36:22.075Z,93140.81
2022-10-06T19:39:09.641Z,93145.72
2022-10-06T19:41:57.243Z,93144.75
2022-10-06T19:44:44.868Z,93152.84
2022-10-06T19:47:32.542Z,93154.84
2022-10-06T19:50:20.117Z,93141.44
2022-10-06T19:53:09.669Z,93148.16
2022-10-06T19:55:57.249Z,93144.63
2022-10-06T19:58:44.821Z,93147.03
2022-10-06T20:01:32.423Z,93145.50
2022-10-06T20:04:22.136Z,93148.59
2022-10-06T20:07:09.730Z,93151.34
2022-10-06T20:09:57.310Z,93147.09
2022-10-06T20:12:44.849Z,93147.78
2022-10-06T20:15:32.510Z,93154.22
2022-10-06T20:18:20.047Z,93146.09
2022-10-06T20:21:07.673Z,93148.22
2022-10-06T20:23:55.221Z,93155.44
2022-10-06T20:26:42.788Z,93154.84
2022-10-06T20:29:30.316Z,93150.75
2022-10-06T20:32:17.991Z,93151.50
2022-10-06T20:35:07.541Z,93147.56
2022-10-06T20:37:55.154Z,93152.03
2022-10-06T20:40:42.772Z,93140.69
2022-10-06T20:43:30.324Z,93153.09
2022-10-06T20:46:17.917Z,93151.69
2022-10-06T20:49:05.563Z,93144.03
2022-10-06T20:51:53.109Z,93151.09
2022-10-06T20:54:40.657Z,93145.63
2022-10-06T20:57:33.532Z,93150.16
2022-10-06T21:00:24.587Z,93151.50
2022-10-06T21:03:12.301Z,93143.81
2022-10-06T21:05:59.874Z,93145.75
2022-10-06T21:08:47.424Z,93146.16
2022-10-06T21:11:35.024Z,93150.53
2022-10-06T21:14:22.550Z,93146.75
2022-10-06T21:17:10.075Z,93141.91
2022-10-06T21:19:57.720Z,93143.00
2022-10-06T21:22:45.246Z,93137.03
2022-10-06T21:25:32.917Z,93137.00
2022-10-06T21:28:20.567Z,93131.53
2022-10-06T21:31:08.206Z,93126.53
2022-10-06T21:33:55.853Z,93125.00
2022-10-06T21:36:43.541Z,93128.59
2022-10-06T21:39:31.123Z,93116.09
2022-10-06T21:42:18.709Z,93117.56
2022-10-06T21:45:06.233Z,93120.47
2022-10-06T21:47:53.964Z,93117.00
2022-10-06T21:50:41.527Z,93116.28
2022-10-06T21:53:31.099Z,93110.91
2022-10-06T21:56:18.635Z,93108.72
2022-10-06T21:59:06.196Z,93111.81
2022-10-06T22:01:53.820Z,93112.50
2022-10-06T22:04:41.438Z,93112.53
2022-10-06T22:07:29.018Z,93107.75
2022-10-06T22:10:16.567Z,93107.34
2022-10-06T22:13:04.083Z,93110.16
2022-10-06T22:15:51.696Z,93110.66
2022-10-06T22:18:39.274Z,93108.66
2022-10-06T22:21:26.924Z,93112.06
2022-10-06T22:24:16.438Z,93113.13
2022-10-06T22:27:03.975Z,93102.75
2022-10-06T22:29:51.497Z,93106.91
2022-10-06T22:32:39.034Z,93112.66
2022-10-06T22:35:26.551Z,93104.13
2022-10-06T22:38:14.112Z,93110.63
2022-10-06T22:41:01.643Z,93106.78
2022-10-06T22:43:49.203Z,93100.84
2022-10-06T22:46:36.814Z,93100.41
2022-10-06T22:49:24.501Z,93098.56
2022-10-06T22:52:14.039Z,93095.97
2022-10-06T22:55:01.670Z,93097.78
2022-10-06T22:57:51.186Z,93090.97
2022-10-06T23:00:38.783Z,93089.50
2022-10-06T23:03:26.450Z,93095.00
2022-10-06T23:06:14.007Z,93087.03
2022-10-06T23:09:01.559Z,93081.38
2022-10-06T23:11:49.077Z,93081.19
2022-10-06T23:14:36.625Z,93080.59
2022-10-06T23:17:24.180Z,93081.25
2022-10-06T23:20:11.713Z,93082.84
2022-10-06T23:22:59.260Z,93081.09
2022-10-06T23:25:46.823Z,93072.34
2022-10-06T23:28:34.445Z,93075.66
2022-10-06T23:31:22.113Z,93078.72
2022-10-06T23:34:09.710Z,93080.28
2022-10-06T23:36:57.231Z,93072.94
2022-10-06T23:39:44.770Z,93072.00
2022-10-06T23:42:32.295Z,93076.09
2022-10-06T23:45:19.851Z,93072.19
2022-10-06T23:48:07.380Z,93073.28
2022-10-06T23:50:54.927Z,93068.72
2022-10-06T23:53:42.454Z,93070.25
2022-10-06T23:56:29.986Z,93065.69
2022-10-06T23:59:17.510Z,93067.81
